createdAt,value
2019-05-25T00:01:28.629Z,67.33
2019-05-25T00:03:57.043Z,66.81
2019-05-25T00:06:29.484Z,67.90
2019-05-25T00:09:01.928Z,67.17
2019-05-25T00:11:29.635Z,67.13
2019-05-25T00:14:00.809Z,66.73
2019-05-25T00:16:29.495Z,67.28
2019-05-25T00:18:58.919Z,67.41
2019-05-25T00:21:27.392Z,67.15
2019-05-25T00:24:10.881Z,67.33
2019-05-25T00:26:25.979Z,66.83
2019-05-25T00:28:54.990Z,66.72
2019-05-25T00:31:23.408Z,66.84
2019-05-25T00:33:51.851Z,66.41
2019-05-25T00:36:24.273Z,66.87
2019-05-25T00:38:55.420Z,66.69
2019-05-25T00:41:23.974Z,67.19
2019-05-25T00:43:52.386Z,67.07
2019-05-25T00:46:22.349Z,66.27
2019-05-25T00:48:50.757Z,66.90
2019-05-25T00:51:24.021Z,66.34
2019-05-25T00:53:52.456Z,66.90
2019-05-25T00:56:20.861Z,66.47
2019-05-25T00:58:49.305Z,66.02
2019-05-25T01:01:19.788Z,66.24
2019-05-25T01:03:52.055Z,66.39
2019-05-25T01:06:20.485Z,66.47
2019-05-25T01:08:48.911Z,67.07
2019-05-25T01:11:17.315Z,66.45
2019-05-25T01:13:46.704Z,66.74
2019-05-25T01:16:16.121Z,66.54
2019-05-25T01:18:48.362Z,66.52
2019-05-25T01:21:16.787Z,66.88
2019-05-25T01:23:45.220Z,67.11
2019-05-25T01:26:17.583Z,66.27
2019-05-25T01:28:46.107Z,65.72
2019-05-25T01:31:14.690Z,66.09
2019-05-25T01:33:43.111Z,66.06
2019-05-25T01:36:11.626Z,65.93
2019-05-25T01:38:45.575Z,65.95
2019-05-25T01:41:12.683Z,66.32
2019-05-25T01:43:47.695Z,66.04
2019-05-25T01:46:16.142Z,66.71
2019-05-25T01:48:45.611Z,66.44
2019-05-25T01:51:16.570Z,65.59
2019-05-25T01:53:48.461Z,66.01
2019-05-25T01:56:20.588Z,65.63
2019-05-25T01:58:52.921Z,64.70
2019-05-25T02:01:21.347Z,65.02
2019-05-25T02:03:51.280Z,65.52
2019-05-25T02:06:19.697Z,66.48
2019-05-25T02:08:48.099Z,66.20
2019-05-25T02:11:16.512Z,65.49
2019-05-25T02:13:44.923Z,65.18
2019-05-25T02:16:15.857Z,64.76
2019-05-25T02:18:47.746Z,65.25
2019-05-25T02:21:16.177Z,65.33
2019-05-25T02:23:46.608Z,65.13
2019-05-25T02:26:15.046Z,65.29
2019-05-25T02:28:45.927Z,64.78
2019-05-25T02:31:17.027Z,65.01
2019-05-25T02:33:49.549Z,64.83
2019-05-25T02:36:20.529Z,64.36
2019-05-25T02:38:48.323Z,65.34
2019-05-25T02:41:19.167Z,64.65
2019-05-25T02:43:51.235Z,65.37
2019-05-25T02:46:19.631Z,65.27
2019-05-25T02:48:48.068Z,65.31
2019-05-25T02:51:16.487Z,65.53
2019-05-25T02:53:46.002Z,65.86
2019-05-25T02:56:15.857Z,65.56
2019-05-25T02:58:50.937Z,65.71
2019-05-25T03:01:22.062Z,66.03
2019-05-25T03:03:54.707Z,65.93
2019-05-25T03:06:23.523Z,65.65
2019-05-25T03:08:53.487Z,65.87
2019-05-25T03:11:22.176Z,65.95
2019-05-25T03:13:55.829Z,66.20
2019-05-25T03:16:24.232Z,65.98
2019-05-25T03:18:52.650Z,65.95
2019-05-25T03:21:26.676Z,65.83
2019-05-25T03:23:55.281Z,66.07
2019-05-25T03:26:28.512Z,66.20
2019-05-25T03:29:01.095Z,66.04
2019-05-25T03:31:32.243Z,65.86
2019-05-25T03:34:00.666Z,65.52
2019-05-25T03:36:29.085Z,65.59
2019-05-25T03:38:59.406Z,66.09
2019-05-25T03:41:27.826Z,66.17
2019-05-25T03:43:59.108Z,65.79
2019-05-25T03:46:28.496Z,67.12
2019-05-25T03:48:57.302Z,66.36
2019-05-25T03:51:28.174Z,66.41
2019-05-25T03:53:56.629Z,66.35
2019-05-25T03:56:25.043Z,65.98
2019-05-25T03:58:53.499Z,66.00
2019-05-25T04:01:21.911Z,65.55
2019-05-25T04:03:53.670Z,66.83
2019-05-25T04:06:24.419Z,66.66
2019-05-25T04:08:52.269Z,67.34
2019-05-25T04:11:20.742Z,67.44
2019-05-25T04:13:49.156Z,66.75
2019-05-25T04:16:21.200Z,66.58
2019-05-25T04:18:49.609Z,67.54
2019-05-25T04:21:18.968Z,66.92
2019-05-25T04:23:51.434Z,67.22
2019-05-25T04:26:22.596Z,66.68
2019-05-25T04:28:55.538Z,66.73
2019-05-25T04:31:27.202Z,65.85
2019-05-25T04:34:03.109Z,66.19
2019-05-25T04:36:32.520Z,67.16
2019-05-25T04:39:00.959Z,66.03
2019-05-25T04:41:29.378Z,65.74
2019-05-25T04:43:57.793Z,65.24
2019-05-25T04:46:26.295Z,65.76
2019-05-25T04:49:04.169Z,65.03
2019-05-25T04:51:32.609Z,64.42
2019-05-25T04:54:04.669Z,63.94
2019-05-25T04:56:39.551Z,63.49
2019-05-25T04:59:12.691Z,63.52
2019-05-25T05:01:41.110Z,63.18
2019-05-25T05:04:09.538Z,62.23
2019-05-25T05:06:37.960Z,63.50
2019-05-25T05:09:10.223Z,61.78
2019-05-25T05:11:41.111Z,63.11
2019-05-25T05:14:09.517Z,62.28
2019-05-25T05:16:37.974Z,62.45
2019-05-25T05:19:06.385Z,62.44
2019-05-25T05:21:34.817Z,62.22
2019-05-25T05:24:03.235Z,62.08
2019-05-25T05:26:31.656Z,62.31
2019-05-25T05:29:00.142Z,62.68
2019-05-25T05:31:28.697Z,61.39
2019-05-25T05:33:57.105Z,62.00
2019-05-25T05:36:27.342Z,60.78
2019-05-25T05:38:58.595Z,60.25
2019-05-25T05:41:31.132Z,60.87
2019-05-25T05:44:04.740Z,60.71
2019-05-25T05:46:34.799Z,60.03
2019-05-25T05:49:03.956Z,60.07
2019-05-25T05:51:35.954Z,60.41
2019-05-25T05:54:05.520Z,60.94
2019-05-25T05:56:33.927Z,61.31
2019-05-25T05:59:02.327Z,61.04
2019-05-25T06:01:30.743Z,60.51
2019-05-25T06:03:59.171Z,61.24
2019-05-25T06:06:27.587Z,60.41
2019-05-25T06:08:56.003Z,60.33
2019-05-25T06:11:25.474Z,58.88
2019-05-25T06:13:55.005Z,59.51
2019-05-25T06:16:23.453Z,58.81
2019-05-25T06:18:54.344Z,57.26
2019-05-25T06:21:26.565Z,58.50
2019-05-25T06:23:54.984Z,56.36
2019-05-25T06:26:28.283Z,55.22
2019-05-25T06:29:02.803Z,55.11
2019-05-25T06:31:31.201Z,54.54
2019-05-25T06:34:06.614Z,54.96
2019-05-25T06:36:37.670Z,53.25
2019-05-25T06:39:08.029Z,51.91
2019-05-25T06:41:36.580Z,51.46
2019-05-25T06:44:05.742Z,51.45
2019-05-25T06:46:34.188Z,50.48
2019-05-25T06:49:02.594Z,51.40
2019-05-25T06:51:31.013Z,52.39
2019-05-25T06:53:59.423Z,52.14
2019-05-25T06:56:31.652Z,53.20
2019-05-25T06:59:01.126Z,53.53
2019-05-25T07:01:32.265Z,54.13
2019-05-25T07:04:00.207Z,54.32
2019-05-25T07:06:29.689Z,55.67
2019-05-25T07:09:06.212Z,54.28
2019-05-25T07:11:34.717Z,55.12
2019-05-25T07:14:03.143Z,55.97
2019-05-25T07:16:33.099Z,56.50
2019-05-25T07:19:01.470Z,56.33
2019-05-25T07:21:29.874Z,56.47
2019-05-25T07:23:58.296Z,55.75
2019-05-25T07:26:28.582Z,56.12
2019-05-25T07:28:57.010Z,55.56
2019-05-25T07:31:25.817Z,56.99
2019-05-25T07:33:55.338Z,56.14
2019-05-25T07:36:23.736Z,55.65
2019-05-25T07:38:52.205Z,55.10
2019-05-25T07:41:20.757Z,53.93
2019-05-25T07:43:50.317Z,53.88
2019-05-25T07:46:18.726Z,53.00
2019-05-25T07:48:50.462Z,53.83
2019-05-25T07:51:18.983Z,52.92
2019-05-25T07:53:53.986Z,52.54
2019-05-25T07:56:25.980Z,51.06
2019-05-25T07:58:54.402Z,50.58
2019-05-25T08:01:32.533Z,51.66
2019-05-25T08:04:00.944Z,50.49
2019-05-25T08:06:34.640Z,45.44
2019-05-25T08:09:04.252Z,45.44
2019-05-25T08:11:32.684Z,46.57
2019-05-25T08:14:01.119Z,47.92
2019-05-25T08:16:33.091Z,49.86
2019-05-25T08:19:01.492Z,51.09
2019-05-25T08:21:29.929Z,52.28
2019-05-25T08:23:58.343Z,52.91
2019-05-25T08:26:26.751Z,53.08
2019-05-25T08:29:02.053Z,53.30
2019-05-25T08:31:32.885Z,54.28
2019-05-25T08:34:15.376Z,53.85
2019-05-25T08:36:47.591Z,54.10
2019-05-25T08:39:15.991Z,55.01
2019-05-25T08:41:45.660Z,53.40
2019-05-25T08:44:18.031Z,53.92
2019-05-25T08:46:50.182Z,54.11
2019-05-25T08:49:18.595Z,54.08
2019-05-25T08:51:47.012Z,52.87
2019-05-25T08:54:15.416Z,51.54
2019-05-25T08:56:45.492Z,53.53
2019-05-25T08:59:18.255Z,52.89
2019-05-25T09:01:46.688Z,51.50
2019-05-25T09:04:17.533Z,50.62
2019-05-25T09:06:50.580Z,51.78
2019-05-25T09:09:21.133Z,50.41
2019-05-25T09:11:53.866Z,50.28
2019-05-25T09:14:24.848Z,50.33
2019-05-25T09:16:56.953Z,51.87
2019-05-25T09:19:25.435Z,49.40
2019-05-25T09:22:03.504Z,49.20
2019-05-25T09:24:35.135Z,49.46
2019-05-25T09:27:08.691Z,50.13
2019-05-25T09:29:37.099Z,49.30
2019-05-25T09:32:07.089Z,50.33
2019-05-25T09:34:35.741Z,50.17
2019-05-25T09:37:04.227Z,50.28
2019-05-25T09:39:32.639Z,51.63
2019-05-25T09:42:09.748Z,49.98
2019-05-25T09:44:38.174Z,49.14
2019-05-25T09:47:06.629Z,49.78
2019-05-25T09:49:37.919Z,50.59
2019-05-25T09:52:06.350Z,51.12
2019-05-25T09:54:39.243Z,49.93
2019-05-25T09:57:08.773Z,49.95
2019-05-25T09:59:41.055Z,50.49
2019-05-25T10:02:11.893Z,49.21
2019-05-25T10:04:40.386Z,47.60
2019-05-25T10:07:13.753Z,49.76
2019-05-25T10:09:42.161Z,46.29
2019-05-25T10:12:10.600Z,47.12
2019-05-25T10:14:40.644Z,47.45
2019-05-25T10:17:08.993Z,45.96
2019-05-25T10:19:38.481Z,47.71
2019-05-25T10:22:09.907Z,47.56
2019-05-25T10:24:38.355Z,47.65
2019-05-25T10:27:08.924Z,48.81
2019-05-25T10:29:37.880Z,48.14
2019-05-25T10:32:08.886Z,48.51
2019-05-25T10:34:37.327Z,49.98
2019-05-25T10:37:06.441Z,50.20
2019-05-25T10:39:36.826Z,50.21
2019-05-25T10:42:10.501Z,50.79
2019-05-25T10:44:38.903Z,50.32
2019-05-25T10:47:09.857Z,49.90
2019-05-25T10:49:39.333Z,47.97
2019-05-25T10:52:10.011Z,47.16
2019-05-25T10:54:41.977Z,46.91
2019-05-25T10:57:13.042Z,47.59
2019-05-25T10:59:52.530Z,48.22
2019-05-25T11:02:10.860Z,45.96
2019-05-25T11:04:39.282Z,47.32
2019-05-25T11:07:21.951Z,48.00
2019-05-25T11:09:46.886Z,46.88
2019-05-25T11:12:15.278Z,47.54
2019-05-25T11:14:43.729Z,46.81
2019-05-25T11:17:12.095Z,48.20
2019-05-25T11:19:40.591Z,46.76
2019-05-25T11:22:12.788Z,47.07
2019-05-25T11:24:46.515Z,46.54
2019-05-25T11:27:16.073Z,49.18
2019-05-25T11:29:44.462Z,48.74
2019-05-25T11:32:15.830Z,49.11
2019-05-25T11:34:46.760Z,48.19
2019-05-25T11:37:15.797Z,49.48
2019-05-25T11:39:44.322Z,49.23
2019-05-25T11:42:15.208Z,47.11
2019-05-25T11:44:43.676Z,47.22
2019-05-25T11:47:12.116Z,46.28
2019-05-25T11:49:40.510Z,47.58
2019-05-25T11:52:08.914Z,48.46
2019-05-25T11:54:37.306Z,48.27
2019-05-25T11:57:05.739Z,46.83
2019-05-25T11:59:34.194Z,47.86
2019-05-25T12:02:02.663Z,47.04
2019-05-25T12:04:31.076Z,45.60
2019-05-25T12:07:04.952Z,47.00
2019-05-25T12:09:37.188Z,44.69
2019-05-25T12:12:06.843Z,44.32
2019-05-25T12:14:35.258Z,45.08
2019-05-25T12:17:06.450Z,45.88
2019-05-25T12:19:38.653Z,48.65
2019-05-25T12:22:08.081Z,48.65
2019-05-25T12:24:36.570Z,49.25
2019-05-25T12:27:04.988Z,50.03
2019-05-25T12:29:33.458Z,49.23
2019-05-25T12:32:05.257Z,50.36
2019-05-25T12:34:33.136Z,46.77
2019-05-25T12:37:01.551Z,47.99
2019-05-25T12:39:33.841Z,46.42
2019-05-25T12:42:03.591Z,47.32
2019-05-25T12:44:39.879Z,46.43
2019-05-25T12:47:08.372Z,47.35
2019-05-25T12:49:50.165Z,46.89
2019-05-25T12:52:10.284Z,47.35
2019-05-25T12:54:43.630Z,47.58
2019-05-25T12:57:12.082Z,48.56
2019-05-25T12:59:43.174Z,47.85
2019-05-25T13:02:15.188Z,48.16
2019-05-25T13:04:44.820Z,48.85
2019-05-25T13:07:13.278Z,49.20
2019-05-25T13:09:41.691Z,49.42
2019-05-25T13:12:11.182Z,47.81
2019-05-25T13:14:42.247Z,49.36
2019-05-25T13:17:10.661Z,48.25
2019-05-25T13:19:40.145Z,47.40
2019-05-25T13:22:09.715Z,48.64
2019-05-25T13:24:38.289Z,47.66
2019-05-25T13:27:06.777Z,48.83
2019-05-25T13:29:35.194Z,48.84
2019-05-25T13:32:03.787Z,47.42
2019-05-25T13:34:34.138Z,46.63
2019-05-25T13:37:02.699Z,46.69
2019-05-25T13:39:35.899Z,46.30
2019-05-25T13:42:05.448Z,47.79
2019-05-25T13:44:34.226Z,47.31
2019-05-25T13:47:05.298Z,49.18
2019-05-25T13:49:33.856Z,49.54
2019-05-25T13:52:03.283Z,49.17
2019-05-25T13:54:34.248Z,50.30
2019-05-25T13:57:02.674Z,48.24
2019-05-25T13:59:31.091Z,46.91
2019-05-25T14:01:59.523Z,49.18
2019-05-25T14:04:27.939Z,47.66
2019-05-25T14:06:56.437Z,46.29
2019-05-25T14:09:24.856Z,47.93
2019-05-25T14:11:53.300Z,47.11
2019-05-25T14:14:24.363Z,49.42
2019-05-25T14:16:54.539Z,48.56
2019-05-25T14:19:22.950Z,46.90
2019-05-25T14:21:52.358Z,48.61
2019-05-25T14:24:21.806Z,48.63
2019-05-25T14:26:54.290Z,48.57
2019-05-25T14:29:26.026Z,49.97
2019-05-25T14:31:53.873Z,48.69
2019-05-25T14:34:23.284Z,47.33
2019-05-25T14:36:53.020Z,49.09
2019-05-25T14:39:26.231Z,48.39
2019-05-25T14:41:57.165Z,48.81
2019-05-25T14:44:28.101Z,48.96
2019-05-25T14:46:57.624Z,49.80
2019-05-25T14:49:28.108Z,47.87
2019-05-25T14:51:57.590Z,49.78
2019-05-25T14:54:29.728Z,49.96
2019-05-25T14:56:58.224Z,49.36
2019-05-25T14:59:26.633Z,46.94
2019-05-25T15:02:02.383Z,46.94
2019-05-25T15:04:26.309Z,48.61
2019-05-25T15:06:54.878Z,47.99
2019-05-25T15:09:31.483Z,50.04
2019-05-25T15:12:02.006Z,50.06
2019-05-25T15:14:31.325Z,50.06
2019-05-25T15:17:01.337Z,49.59
2019-05-25T15:19:30.998Z,48.29
2019-05-25T15:22:02.525Z,47.97
2019-05-25T15:24:37.064Z,49.03
2019-05-25T15:27:07.443Z,49.03
2019-05-25T15:29:40.818Z,48.35
2019-05-25T15:32:19.937Z,48.28
2019-05-25T15:34:46.644Z,47.15
2019-05-25T15:37:15.344Z,46.38
2019-05-25T15:39:46.969Z,48.11
2019-05-25T15:42:15.005Z,47.36
2019-05-25T15:44:43.807Z,48.00
2019-05-25T15:47:13.792Z,47.60
2019-05-25T15:49:43.791Z,47.65
2019-05-25T15:52:13.633Z,48.71
2019-05-25T15:54:47.467Z,49.21
2019-05-25T15:57:16.144Z,49.67
2019-05-25T15:59:46.780Z,49.40
2019-05-25T16:02:36.267Z,48.32
2019-05-25T16:04:57.535Z,49.37
2019-05-25T16:07:25.999Z,49.32
2019-05-25T16:09:54.707Z,48.43
2019-05-25T16:12:23.276Z,50.19
2019-05-25T16:14:56.959Z,49.61
2019-05-25T16:17:26.263Z,49.47
2019-05-25T16:19:54.874Z,48.53
2019-05-25T16:22:23.617Z,48.86
2019-05-25T16:24:59.907Z,49.53
2019-05-25T16:27:30.146Z,49.80
2019-05-25T16:29:58.687Z,49.56
2019-05-25T16:32:27.180Z,49.78
2019-05-25T16:35:00.384Z,50.13
2019-05-25T16:37:37.607Z,49.77
2019-05-25T16:40:10.893Z,50.70
2019-05-25T16:42:39.605Z,50.91
2019-05-25T16:45:10.286Z,51.95
2019-05-25T16:47:44.264Z,51.47
2019-05-25T16:50:14.994Z,52.46
2019-05-25T16:52:46.682Z,52.45
2019-05-25T16:55:16.487Z,53.55
2019-05-25T16:57:49.067Z,54.07
2019-05-25T17:00:20.586Z,54.36
2019-05-25T17:02:52.838Z,54.58
2019-05-25T17:05:21.437Z,52.87
2019-05-25T17:07:52.172Z,53.68
2019-05-25T17:10:22.522Z,53.92
2019-05-25T17:12:53.606Z,54.00
2019-05-25T17:15:22.347Z,54.28
2019-05-25T17:17:51.121Z,54.42
2019-05-25T17:20:23.670Z,53.55
2019-05-25T17:22:54.152Z,54.39
2019-05-25T17:25:22.628Z,54.98
2019-05-25T17:27:51.099Z,55.34
2019-05-25T17:30:39.912Z,54.69
2019-05-25T17:33:09.565Z,55.83
2019-05-25T17:35:43.214Z,54.66
2019-05-25T17:38:11.910Z,54.31
2019-05-25T17:40:40.437Z,54.47
2019-05-25T17:43:08.886Z,54.30
2019-05-25T17:45:37.348Z,53.35
2019-05-25T17:48:09.807Z,54.14
2019-05-25T17:50:41.075Z,54.04
2019-05-25T17:53:13.450Z,54.57
2019-05-25T17:55:41.160Z,53.94
2019-05-25T17:58:32.932Z,54.54
2019-05-25T18:01:16.799Z,54.08
2019-05-25T18:04:05.379Z,54.08
2019-05-25T18:06:23.786Z,53.90
2019-05-25T18:08:52.228Z,54.05
2019-05-25T18:11:22.612Z,54.54
2019-05-25T18:13:50.997Z,55.45
2019-05-25T18:16:23.279Z,55.20
2019-05-25T18:18:51.699Z,55.05
2019-05-25T18:21:22.107Z,55.15
2019-05-25T18:23:50.520Z,54.81
2019-05-25T18:26:21.715Z,54.95
2019-05-25T18:29:23.647Z,54.67
2019-05-25T18:32:04.377Z,53.79
2019-05-25T18:34:33.201Z,54.98
2019-05-25T18:37:03.293Z,55.28
2019-05-25T18:39:36.875Z,54.48
2019-05-25T18:42:10.261Z,55.48
2019-05-25T18:44:38.681Z,55.45
2019-05-25T18:47:10.702Z,55.80
2019-05-25T18:49:48.328Z,55.93
2019-05-25T18:52:22.134Z,56.85
2019-05-25T18:54:54.762Z,56.36
2019-05-25T18:57:25.960Z,57.09
2019-05-25T18:59:57.979Z,56.66
2019-05-25T19:02:30.160Z,56.90
2019-05-25T19:05:01.185Z,57.17
2019-05-25T19:07:30.808Z,56.98
2019-05-25T19:09:59.329Z,57.72
2019-05-25T19:12:27.862Z,57.46
2019-05-25T19:14:58.353Z,57.31
2019-05-25T19:17:29.325Z,58.05
2019-05-25T19:20:01.697Z,58.65
2019-05-25T19:22:40.684Z,58.08
2019-05-25T19:25:12.596Z,58.74
2019-05-25T19:27:43.904Z,58.75
2019-05-25T19:30:15.730Z,58.39
2019-05-25T19:32:48.237Z,57.96
2019-05-25T19:35:16.677Z,57.18
2019-05-25T19:37:48.109Z,56.91
2019-05-25T19:40:17.161Z,56.43
2019-05-25T19:42:50.227Z,55.85
2019-05-25T19:45:20.206Z,56.97
2019-05-25T19:47:49.556Z,58.02
2019-05-25T19:50:18.186Z,57.38
2019-05-25T19:52:49.044Z,58.52
2019-05-25T19:55:17.603Z,58.07
2019-05-25T19:57:47.044Z,58.81
2019-05-25T20:00:19.872Z,57.93
2019-05-25T20:02:48.297Z,57.87
2019-05-25T20:05:17.639Z,57.84
2019-05-25T20:07:46.180Z,57.91
2019-05-25T20:10:15.322Z,57.42
2019-05-25T20:12:47.097Z,57.79
2019-05-25T20:15:16.684Z,57.78
2019-05-25T20:17:45.056Z,57.04
2019-05-25T20:20:14.196Z,56.98
2019-05-25T20:22:45.094Z,58.19
2019-05-25T20:25:13.718Z,57.57
2019-05-25T20:27:48.749Z,57.35
2019-05-25T20:30:16.344Z,57.19
2019-05-25T20:32:47.304Z,56.22
2019-05-25T20:35:31.757Z,56.98
2019-05-25T20:37:46.147Z,57.17
2019-05-25T20:40:14.770Z,57.28
2019-05-25T20:42:43.153Z,56.87
2019-05-25T20:45:14.219Z,57.53
2019-05-25T20:47:45.092Z,57.04
2019-05-25T20:50:16.694Z,57.60
2019-05-25T20:52:45.098Z,58.17
2019-05-25T20:55:13.682Z,58.17
2019-05-25T20:57:42.090Z,59.10
2019-05-25T21:00:11.058Z,59.04
2019-05-25T21:02:39.467Z,60.53
2019-05-25T21:05:11.721Z,59.49
2019-05-25T21:07:40.142Z,60.58
2019-05-25T21:10:09.937Z,60.62
2019-05-25T21:12:38.367Z,60.19
2019-05-25T21:15:10.647Z,60.65
2019-05-25T21:17:39.112Z,61.16
2019-05-25T21:20:07.958Z,61.29
2019-05-25T21:22:40.133Z,61.90
2019-05-25T21:25:12.494Z,62.70
2019-05-25T21:27:43.284Z,63.03
2019-05-25T21:30:15.476Z,63.35
2019-05-25T21:32:44.048Z,64.32
2019-05-25T21:35:12.689Z,63.49
2019-05-25T21:37:42.033Z,64.20
2019-05-25T21:40:11.623Z,64.12
2019-05-25T21:42:40.516Z,63.81
2019-05-25T21:45:10.385Z,64.00
2019-05-25T21:47:38.790Z,63.65
2019-05-25T21:50:07.765Z,64.17
2019-05-25T21:52:36.565Z,64.66
2019-05-25T21:55:06.778Z,64.08
2019-05-25T21:57:35.164Z,64.02
2019-05-25T22:00:10.929Z,63.92
2019-05-25T22:02:39.373Z,64.11
2019-05-25T22:05:09.109Z,64.03
2019-05-25T22:07:38.514Z,64.10
2019-05-25T22:10:07.151Z,63.53
2019-05-25T22:12:36.517Z,63.54
2019-05-25T22:15:08.623Z,63.76
2019-05-25T22:17:39.661Z,63.61
2019-05-25T22:20:10.784Z,63.94
2019-05-25T22:22:39.227Z,64.24
2019-05-25T22:25:09.148Z,63.81
2019-05-25T22:27:40.142Z,64.14
2019-05-25T22:30:12.292Z,63.88
2019-05-25T22:32:42.084Z,64.76
2019-05-25T22:35:16.815Z,64.64
2019-05-25T22:37:46.225Z,65.33
2019-05-25T22:40:20.179Z,65.67
2019-05-25T22:42:48.747Z,65.23
2019-05-25T22:45:17.235Z,65.68
2019-05-25T22:47:45.635Z,64.38
2019-05-25T22:50:14.490Z,65.06
2019-05-25T22:52:45.564Z,65.21
2019-05-25T22:55:31.592Z,64.93
2019-05-25T22:57:53.287Z,64.69
2019-05-25T23:00:21.873Z,64.47
2019-05-25T23:02:54.070Z,64.97
2019-05-25T23:05:22.480Z,65.86
2019-05-25T23:07:50.885Z,65.70
2019-05-25T23:10:19.445Z,65.08
2019-05-25T23:12:47.837Z,65.90
2019-05-25T23:15:16.420Z,66.06
2019-05-25T23:17:44.885Z,66.48
2019-05-25T23:20:14.009Z,66.91
2019-05-25T23:22:42.438Z,66.77
2019-05-25T23:25:11.065Z,65.53
2019-05-25T23:27:39.493Z,65.68
2019-05-25T23:30:12.720Z,65.81
2019-05-25T23:32:41.149Z,66.40
2019-05-25T23:35:09.627Z,66.50
2019-05-25T23:37:38.043Z,66.83
2019-05-25T23:40:10.198Z,66.76
2019-05-25T23:42:41.318Z,66.84
2019-05-25T23:45:11.445Z,66.50
2019-05-25T23:47:40.978Z,66.78
2019-05-25T23:50:13.413Z,67.23
2019-05-25T23:52:41.084Z,67.82
2019-05-25T23:55:09.886Z,67.77
2019-05-25T23:57:39.475Z,68.43
